Time;durP1;ratioP1;P1;durP2;ratioP2;P2;SDS_P1;SDS_P2;PMS_P1;PMS_P2;Temp;Humidity;BMP_temperature;BMP_pressure;BME280_temperature;BME280_humidity;BME280_pressure;Samples;Min_cycle;Max_cycle;Signal;HPM_P1;HPM_P2
2022/08/16 00:02:20;;;;;;;;;28.25;25.25;;;;;24.99;44.88;100108.25;5076599;27;70713;-56
2022/08/16 00:04:46;;;;;;;;;32.25;26.25;;;;;24.99;44.81;100113.59;5073537;28;70388;-56
2022/08/16 00:07:11;;;;;;;;;25.75;25.75;;;;;24.97;44.90;100112.91;5081197;27;45492;-55
2022/08/16 00:09:36;;;;;;;;;31.00;28.00;;;;;24.97;44.96;100113.75;5077498;28;65531;-54
2022/08/16 00:12:03;;;;;;;;;28.75;24.25;;;;;24.96;45.10;100120.06;5071076;27;45459;-55
2022/08/16 00:14:32;;;;;;;;;33.00;29.75;;;;;24.95;45.49;100121.09;5074780;28;45292;-56
2022/08/16 00:16:58;;;;;;;;;32.75;28.25;;;;;24.92;45.32;100120.53;5065744;28;45941;-56
2022/08/16 00:19:27;;;;;;;;;30.50;23.75;;;;;24.91;45.54;100118.84;5078907;27;45440;-56
2022/08/16 00:21:53;;;;;;;;;33.00;29.00;;;;;24.89;45.48;100124.34;5079383;28;45279;-54
2022/08/16 00:24:19;;;;;;;;;38.25;31.00;;;;;24.85;45.44;100122.97;5081268;27;46179;-55
2022/08/16 00:26:45;;;;;;;;;32.00;29.00;;;;;24.82;45.65;100129.47;5071497;28;45344;-56
2022/08/16 00:29:12;;;;;;;;;36.00;29.75;;;;;24.82;45.79;100125.94;5070332;27;45485;-56
2022/08/16 00:31:38;;;;;;;;;37.00;29.00;;;;;24.79;46.10;100126.25;5069988;28;45449;-56
2022/08/16 00:34:03;;;;;;;;;32.75;30.75;;;;;24.78;46.19;100135.25;5072118;27;45544;-55
2022/08/16 00:36:29;;;;;;;;;36.25;31.00;;;;;24.77;45.91;100139.78;5079675;27;45382;-56
2022/08/16 00:38:54;;;;;;;;;32.75;29.00;;;;;24.76;45.90;100138.09;5082157;27;45390;-56
2022/08/16 00:41:20;;;;;;;;;33.50;29.75;;;;;24.75;46.09;100132.88;5076962;27;45360;-56
2022/08/16 00:43:46;;;;;;;;;31.00;28.00;;;;;24.73;45.96;100130.34;5069577;27;46297;-56
2022/08/16 00:46:29;;;;;;;;;29.75;25.50;;;;;24.73;46.37;100141.03;5080791;27;45330;-57
2022/08/16 00:48:55;;;;;;;;;29.75;26.50;;;;;24.72;46.16;100139.38;5061048;28;45320;-56
2022/08/16 00:51:23;;;;;;;;;29.25;27.75;;;;;24.70;46.25;100136.00;5075122;28;45386;-56
2022/08/16 00:53:50;;;;;;;;;28.50;25.25;;;;;24.71;46.47;100139.53;5063172;28;45351;-56
2022/08/16 00:56:20;;;;;;;;;30.25;28.00;;;;;24.70;46.36;100135.16;5079040;27;45543;-56
2022/08/16 00:58:47;;;;;;;;;29.25;28.00;;;;;24.68;46.23;100129.94;5079313;27;45303;-56
2022/08/16 01:01:14;;;;;;;;;32.75;28.25;;;;;24.67;46.41;100122.09;5064736;27;45202;-55
2022/08/16 01:03:42;;;;;;;;;29.00;25.50;;;;;24.66;46.31;100109.69;5093035;27;45704;-56
2022/08/16 01:06:09;;;;;;;;;27.25;27.25;;;;;24.66;46.31;100113.19;5074084;28;45338;-55
2022/08/16 01:08:35;;;;;;;;;28.75;26.50;;;;;24.67;46.38;100116.72;5073995;28;45465;-56
2022/08/16 01:11:04;;;;;;;;;31.25;28.25;;;;;24.65;46.23;100111.53;5078619;28;45420;-56
2022/08/16 01:13:32;;;;;;;;;31.00;28.50;;;;;24.65;46.39;100106.19;5078319;28;47123;-55
2022/08/16 01:16:01;;;;;;;;;31.00;27.00;;;;;24.66;46.41;100104.34;5100396;27;45575;-56
2022/08/16 01:18:30;;;;;;;;;30.00;27.50;;;;;24.64;46.63;100101.81;5081056;27;45308;-56
2022/08/16 01:21:22;;;;;;;;;24.25;24.00;;;;;24.66;46.30;100104.34;5075062;27;45496;-55
2022/08/16 01:23:56;;;;;;;;;35.00;29.00;;;;;24.63;46.53;100103.66;5078710;27;46204;-56
2022/08/16 01:26:23;;;;;;;;;26.25;25.00;;;;;24.62;46.65;100095.75;5069965;28;45288;-56
2022/08/16 01:28:49;;;;;;;;;30.25;25.75;;;;;24.62;46.66;100096.59;5079342;27;45591;-56
2022/08/16 01:31:16;;;;;;;;;26.75;25.75;;;;;24.62;46.69;100101.94;5073823;27;45358;-56
2022/08/16 01:33:42;;;;;;;;;30.00;27.00;;;;;24.61;46.61;100110.97;5073953;28;70542;-55
2022/08/16 01:36:08;;;;;;;;;26.50;25.00;;;;;24.61;46.31;100110.97;5074487;27;61295;-56
2022/08/16 01:38:40;;;;;;;;;30.00;25.25;;;;;24.63;46.79;100108.16;5075869;27;45449;-55
2022/08/16 01:41:10;;;;;;;;;25.75;23.75;;;;;24.63;46.74;100108.16;5075319;28;45544;-55
2022/08/16 01:43:38;;;;;;;;;27.00;23.00;;;;;24.64;46.62;100115.19;5060704;28;46854;-56
2022/08/16 01:46:06;;;;;;;;;28.25;25.25;;;;;24.64;46.67;100109.81;5067812;28;45762;-53
2022/08/16 01:48:33;;;;;;;;;30.75;26.50;;;;;24.63;46.84;100113.50;5070944;28;45434;-57
2022/08/16 01:51:00;;;;;;;;;28.00;26.00;;;;;24.61;46.91;100110.97;5067294;27;46202;-56
2022/08/16 01:53:26;;;;;;;;;30.25;26.00;;;;;24.63;46.58;100116.19;5071291;28;46060;-57
2022/08/16 01:55:52;;;;;;;;;30.25;26.75;;;;;24.61;46.67;100112.78;5060552;27;45208;-54
2022/08/16 01:58:18;;;;;;;;;28.75;25.75;;;;;24.59;46.76;100106.75;5077647;28;45286;-55
2022/08/16 02:00:44;;;;;;;;;29.00;25.50;;;;;24.58;47.03;100116.63;5053915;28;45280;-56
2022/08/16 02:03:10;;;;;;;;;26.00;25.75;;;;;24.58;46.67;100121.13;5061033;28;45652;-56
2022/08/16 02:05:35;;;;;;;;;32.00;25.00;;;;;24.58;46.78;100116.63;5060927;28;45419;-56
2022/08/16 02:08:03;;;;;;;;;25.25;24.00;;;;;24.58;46.74;100116.63;5061833;28;45439;-56
2022/08/16 02:10:29;;;;;;;;;29.75;25.75;;;;;24.58;46.89;100115.78;5064785;28;45491;-56
2022/08/16 02:12:56;;;;;;;;;28.50;26.50;;;;;24.60;46.81;100111.13;5071202;28;48095;-53
2022/08/16 02:15:24;;;;;;;;;28.00;26.75;;;;;24.59;46.78;100112.94;5069348;28;45806;-57
2022/08/16 02:17:49;;;;;;;;;25.00;23.75;;;;;24.59;47.07;100115.59;5078926;27;45264;-54
2022/08/16 02:20:17;;;;;;;;;29.75;27.25;;;;;24.59;47.13;100112.09;5075841;28;53100;-57
2022/08/16 02:22:43;;;;;;;;;26.50;24.75;;;;;24.57;46.88;100101.53;5078112;27;45445;-55
2022/08/16 02:25:14;;;;;;;;;25.25;23.25;;;;;24.58;46.87;100108.59;5074045;27;68283;-56
2022/08/16 02:27:41;;;;;;;;;30.50;26.25;;;;;24.58;46.94;100113.09;5070622;28;45256;-56
2022/08/16 02:30:13;;;;;;;;;27.50;25.50;;;;;24.58;47.05;100110.44;5076143;27;45607;-55
2022/08/16 02:32:40;;;;;;;;;30.25;26.25;;;;;24.56;46.74;100099.88;5062098;28;46228;-55
2022/08/16 02:35:05;;;;;;;;;24.50;22.25;;;;;24.57;46.68;100098.03;5067822;27;46005;-55
2022/08/16 02:37:31;;;;;;;;;30.75;24.50;;;;;24.56;47.03;100094.53;5079528;27;45324;-56
2022/08/16 02:39:56;;;;;;;;;33.00;27.25;;;;;24.57;46.66;100090.84;5063917;27;70797;-55
2022/08/16 02:42:22;;;;;;;;;26.25;23.50;;;;;24.57;46.94;100076.63;5064163;27;74541;-55
2022/08/16 02:44:48;;;;;;;;;29.75;26.25;;;;;24.57;46.82;100074.78;5067106;28;45329;-56
2022/08/16 02:47:13;;;;;;;;;29.00;23.75;;;;;24.55;46.86;100066.06;5067048;27;69327;-56
2022/08/16 02:49:38;;;;;;;;;30.25;27.50;;;;;24.56;46.94;100064.22;5076054;27;63490;-56
2022/08/16 02:52:04;;;;;;;;;28.75;25.00;;;;;24.54;47.13;100064.41;5078319;27;69484;-56
2022/08/16 02:54:29;;;;;;;;;34.00;30.25;;;;;24.53;46.99;100065.38;5065634;27;62712;-54
2022/08/16 02:56:55;;;;;;;;;32.50;29.00;;;;;24.52;47.01;100069.00;5079413;27;45252;-55
2022/08/16 02:59:20;;;;;;;;;31.25;28.00;;;;;24.54;47.15;100072.44;5073987;27;65765;-55
2022/08/16 03:01:46;;;;;;;;;32.25;28.50;;;;;24.53;47.36;100064.53;5064279;27;46250;-54
2022/08/16 03:04:11;;;;;;;;;30.00;27.25;;;;;24.55;47.22;100042.00;5076380;28;45506;-55
2022/08/16 03:06:37;;;;;;;;;33.00;29.00;;;;;24.55;47.47;100033.97;5078525;27;58738;-56
2022/08/16 03:09:02;;;;;;;;;31.50;26.00;;;;;24.53;47.53;100024.41;5068208;27;45232;-55
2022/08/16 03:11:30;;;;;;;;;32.25;28.75;;;;;24.52;47.30;100034.22;5077778;28;45719;-55
2022/08/16 03:13:56;;;;;;;;;37.00;29.50;;;;;24.52;47.14;100036.91;5058182;28;46037;-55
2022/08/16 03:16:22;;;;;;;;;35.50;29.75;;;;;24.53;47.38;100048.47;5075103;27;45280;-55
2022/08/16 03:18:48;;;;;;;;;28.75;27.00;;;;;24.54;47.29;100044.81;5085704;27;45480;-55
2022/08/16 03:21:13;;;;;;;;;30.75;28.25;;;;;24.55;47.49;100046.53;5069592;28;66255;-55
2022/08/16 03:23:39;;;;;;;;;31.75;28.25;;;;;24.55;47.49;100065.25;5077402;28;45569;-55
2022/08/16 03:26:04;;;;;;;;;33.00;31.25;;;;;24.55;47.62;100067.91;5079271;27;45313;-55
2022/08/16 03:28:30;;;;;;;;;34.75;30.50;;;;;24.55;47.78;100065.25;5078334;27;45292;-55
2022/08/16 03:30:56;;;;;;;;;28.50;25.50;;;;;24.55;47.43;100073.28;5069182;27;46188;-55
2022/08/16 03:33:21;;;;;;;;;31.75;28.25;;;;;24.55;47.55;100075.94;5066068;28;45222;-56
2022/08/16 03:35:47;;;;;;;;;33.75;28.75;;;;;24.53;47.68;100064.53;5080120;27;45842;-56
2022/08/16 03:38:14;;;;;;;;;34.50;30.75;;;;;24.52;47.45;100070.84;5083691;27;45415;-55
2022/08/16 03:40:40;;;;;;;;;33.00;29.75;;;;;24.51;47.62;100078.03;5073796;27;46338;-57
2022/08/16 03:43:08;;;;;;;;;35.75;31.00;;;;;24.51;47.67;100079.88;5079777;27;45563;-55
2022/08/16 03:45:35;;;;;;;;;31.00;29.00;;;;;24.49;47.88;100082.69;5071983;27;45300;-56
2022/08/16 03:48:01;;;;;;;;;34.75;31.00;;;;;24.48;47.93;100075.66;5068742;28;46167;-56
2022/08/16 03:50:27;;;;;;;;;30.75;28.00;;;;;24.47;47.67;100070.44;5080703;27;47065;-56
2022/08/16 03:52:53;;;;;;;;;39.00;31.25;;;;;24.45;47.68;100075.94;5080495;27;45445;-54
2022/08/16 03:55:18;;;;;;;;;27.25;25.50;;;;;24.42;48.01;100076.25;5080738;27;62763;-55
2022/08/16 03:57:43;;;;;;;;;36.75;30.50;;;;;24.39;48.18;100079.22;5078417;27;66069;-54
2022/08/16 04:00:13;;;;;;;;;32.00;29.00;;;;;24.39;48.60;100080.06;5070156;27;67804;-54
2022/08/16 04:02:40;;;;;;;;;32.00;29.00;;;;;24.37;48.20;100073.19;5075646;28;45908;-55
2022/08/16 04:05:06;;;;;;;;;34.75;29.00;;;;;24.34;48.29;100082.31;5071626;27;45372;-55
2022/08/16 04:07:31;;;;;;;;;35.75;31.25;;;;;24.33;48.76;100083.31;5079219;27;45351;-55
2022/08/16 04:09:57;;;;;;;;;31.50;28.50;;;;;24.32;48.43;100086.16;5073222;27;46034;-55
2022/08/16 04:12:22;;;;;;;;;34.75;28.00;;;;;24.29;48.82;100086.44;5079476;27;73368;-55
2022/08/16 04:14:48;;;;;;;;;34.75;30.75;;;;;24.26;48.91;100096.44;5090096;27;45312;-55
2022/08/16 04:17:14;;;;;;;;;30.75;28.25;;;;;24.23;49.01;100099.38;5080428;27;45335;-55
2022/08/16 04:19:40;;;;;;;;;38.75;30.75;;;;;24.21;48.83;100096.03;5073419;27;46848;-55
2022/08/16 04:22:06;;;;;;;;;36.50;28.50;;;;;24.21;48.73;100093.34;5077741;28;46024;-55
2022/08/16 04:24:31;;;;;;;;;35.25;30.25;;;;;24.19;48.89;100094.50;5061182;28;45359;-55
2022/08/16 04:26:56;;;;;;;;;31.75;27.25;;;;;24.14;49.57;100094.91;5077633;27;70471;-55
2022/08/16 04:29:22;;;;;;;;;33.50;28.50;;;;;24.11;49.06;100092.53;5076718;28;46277;-55
2022/08/16 04:31:49;;;;;;;;;36.00;31.50;;;;;24.08;49.11;100087.47;5069169;28;62976;-55
2022/08/16 04:34:14;;;;;;;;;35.50;30.50;;;;;24.07;49.21;100094.66;5080193;27;45349;-55
2022/08/16 04:36:39;;;;;;;;;28.75;27.25;;;;;24.06;49.19;100094.78;5070104;27;45527;-54
2022/08/16 04:39:05;;;;;;;;;34.00;29.00;;;;;24.06;49.42;100092.97;5070478;27;69012;-55
2022/08/16 04:41:31;;;;;;;;;33.75;30.00;;;;;24.05;49.27;100090.44;5084502;27;45430;-55
2022/08/16 04:43:57;;;;;;;;;34.25;27.50;;;;;24.02;49.29;100091.56;5065582;28;45351;-54
2022/08/16 04:46:22;;;;;;;;;32.50;28.50;;;;;24.00;49.35;100090.03;5069347;28;45400;-57
2022/08/16 04:48:47;;;;;;;;;32.25;25.50;;;;;23.99;49.58;100091.88;5062871;28;64585;-56
2022/08/16 04:51:13;;;;;;;;;34.25;26.75;;;;;23.98;49.24;100092.84;5076314;27;45688;-56
2022/08/16 04:53:38;;;;;;;;;35.75;31.00;;;;;23.98;49.23;100092.00;5071059;28;61006;-56
2022/08/16 04:56:04;;;;;;;;;32.50;28.25;;;;;23.97;49.38;100098.34;5076693;27;67168;-56
2022/08/16 04:58:30;;;;;;;;;28.50;25.25;;;;;23.95;49.35;100092.28;5077449;27;46767;-56
2022/08/16 05:00:56;;;;;;;;;35.75;27.75;;;;;23.94;49.89;100099.47;5066150;28;45985;-55
2022/08/16 05:03:21;;;;;;;;;26.25;25.00;;;;;23.93;49.42;100100.44;5071519;27;45434;-57
2022/08/16 05:05:47;;;;;;;;;27.75;23.75;;;;;23.91;49.56;100098.94;5079339;27;45456;-56
2022/08/16 05:08:13;;;;;;;;;31.00;24.00;;;;;23.90;49.78;100099.91;5062552;28;45419;-55
2022/08/16 05:10:39;;;;;;;;;33.00;26.50;;;;;23.88;49.96;100092.84;5075087;27;60429;-56
2022/08/16 05:13:05;;;;;;;;;30.25;27.75;;;;;23.88;49.75;100103.53;5079538;27;45480;-54
2022/08/16 05:15:30;;;;;;;;;31.00;28.00;;;;;23.89;49.92;100107.09;5078506;27;45453;-53
2022/08/16 05:17:56;;;;;;;;;27.25;25.75;;;;;23.88;50.11;100108.88;5095833;27;48116;-54
2022/08/16 05:20:21;;;;;;;;;27.25;26.50;;;;;23.90;49.76;100111.41;5071171;27;45225;-54
2022/08/16 05:22:47;;;;;;;;;33.75;30.00;;;;;23.90;49.61;100119.44;5073758;27;45337;-55
2022/08/16 05:25:14;;;;;;;;;29.25;27.00;;;;;23.90;49.72;100122.09;5066913;27;45483;-55
2022/08/16 05:27:41;;;;;;;;;29.25;25.75;;;;;23.91;49.94;100133.66;5073068;27;46999;-54
2022/08/16 05:30:08;;;;;;;;;25.75;23.00;;;;;23.92;50.30;100133.53;5075506;27;45997;-55
2022/08/16 05:32:35;;;;;;;;;27.25;25.25;;;;;23.94;49.99;100133.34;5070659;27;45456;-56
2022/08/16 05:35:01;;;;;;;;;27.25;25.50;;;;;23.96;49.81;100137.59;5078954;27;45252;-55
2022/08/16 05:37:26;;;;;;;;;25.25;23.25;;;;;23.97;50.00;100138.44;5070635;28;46339;-56
2022/08/16 05:39:52;;;;;;;;;27.50;24.00;;;;;23.96;49.70;100134.91;5075668;27;45374;-55
2022/08/16 05:42:17;;;;;;;;;24.75;23.25;;;;;23.98;50.16;100140.97;5071045;28;54053;-55
2022/08/16 05:44:43;;;;;;;;;24.25;22.50;;;;;23.97;49.70;100139.25;5076644;27;69399;-55
2022/08/16 05:47:08;;;;;;;;;22.75;19.50;;;;;23.99;49.63;100136.44;5085633;27;74969;-56
2022/08/16 05:49:33;;;;;;;;;29.75;25.50;;;;;24.01;49.85;100137.16;5068816;27;64168;-56
2022/08/16 05:51:59;;;;;;;;;22.00;21.25;;;;;24.01;49.91;100139.81;5069930;28;56460;-55
2022/08/16 05:54:26;;;;;;;;;23.25;21.25;;;;;24.00;49.85;100144.31;5076611;27;45581;-55
2022/08/16 05:56:56;;;;;;;;;31.00;26.00;;;;;24.00;50.00;100149.69;5074245;28;47627;-56
2022/08/16 05:59:22;;;;;;;;;24.25;22.25;;;;;24.00;49.76;100152.34;5072531;27;45248;-55
2022/08/16 06:01:51;;;;;;;;;22.50;22.50;;;;;24.01;50.00;100148.69;5072539;27;45274;-56
2022/08/16 06:04:17;;;;;;;;;30.00;25.00;;;;;24.02;49.82;100146.88;5076667;27;45488;-55
2022/08/16 06:06:43;;;;;;;;;26.75;24.00;;;;;24.02;50.06;100150.38;5069804;27;46343;-55
2022/08/16 06:09:10;;;;;;;;;26.50;23.25;;;;;24.04;49.95;100152.91;5068458;27;45474;-56
2022/08/16 06:11:35;;;;;;;;;24.00;23.75;;;;;24.06;49.90;100156.28;5071559;28;45345;-56
2022/08/16 06:14:01;;;;;;;;;25.25;22.50;;;;;24.07;49.77;100158.81;5076450;27;45250;-56
2022/08/16 06:16:27;;;;;;;;;27.00;22.50;;;;;24.12;49.83;100160.22;5079357;27;45414;-58
2022/08/16 06:18:52;;;;;;;;;36.75;27.50;;;;;24.13;50.25;100165.41;5068613;27;71139;-56
2022/08/16 06:21:17;;;;;;;;;51.25;37.25;;;;;24.17;49.87;100163.28;5063905;28;45342;-56
2022/08/16 06:23:43;;;;;;;;;38.25;28.50;;;;;24.21;49.77;100168.22;5069857;28;45414;-57
2022/08/16 06:26:08;;;;;;;;;18.50;17.00;;;;;24.24;49.70;100169.75;5070328;27;73919;-57
2022/08/16 06:28:34;;;;;;;;;26.25;20.50;;;;;24.24;49.51;100156.38;5061079;28;45271;-56
2022/08/16 06:30:59;;;;;;;;;29.00;22.25;;;;;24.27;49.29;100164.13;5081456;27;45308;-55
2022/08/16 06:33:24;;;;;;;;;26.00;21.00;;;;;24.28;49.35;100163.16;5075461;27;60481;-54
2022/08/16 06:35:51;;;;;;;;;23.00;18.25;;;;;24.32;49.31;100163.69;5086192;27;45920;-57
2022/08/16 06:38:17;;;;;;;;;16.25;16.25;;;;;24.33;49.36;100163.56;5078091;27;45451;-57
2022/08/16 06:40:42;;;;;;;;;31.75;24.50;;;;;24.39;49.39;100175.50;5078502;27;45358;-56
2022/08/16 06:43:07;;;;;;;;;21.50;17.00;;;;;24.40;49.26;100163.78;5076909;27;45291;-55
2022/08/16 06:45:36;;;;;;;;;23.75;19.50;;;;;24.44;49.51;100163.38;5086506;27;68370;-56
2022/08/16 06:48:05;;;;;;;;;18.25;17.00;;;;;24.46;49.41;100157.88;5076225;27;45252;-56
2022/08/16 06:50:31;;;;;;;;;22.75;20.25;;;;;24.48;49.27;100153.22;5078318;28;45481;-56
2022/08/16 06:52:57;;;;;;;;;19.75;17.75;;;;;24.50;49.12;100156.59;5086515;27;45524;-56
2022/08/16 06:55:22;;;;;;;;;25.00;18.00;;;;;24.52;48.94;100167.16;5071862;28;45288;-54
2022/08/16 06:57:47;;;;;;;;;21.25;18.25;;;;;24.53;48.56;100164.38;5071599;27;70188;-53
2022/08/16 07:00:13;;;;;;;;;20.25;17.00;;;;;24.56;48.70;100165.91;5066494;28;66336;-56
2022/08/16 07:02:40;;;;;;;;;17.00;17.00;;;;;24.56;48.49;100164.09;5066444;27;45364;-56
2022/08/16 07:05:06;;;;;;;;;20.25;17.75;;;;;24.56;48.46;100165.91;5069505;27;45373;-56
2022/08/16 07:07:32;;;;;;;;;18.25;16.00;;;;;24.58;48.16;100170.13;5074242;28;46344;-56
2022/08/16 07:09:58;;;;;;;;;17.75;15.00;;;;;24.60;48.34;100172.66;5074528;27;45425;-59
2022/08/16 07:12:23;;;;;;;;;17.00;15.75;;;;;24.58;48.27;100169.28;5064445;27;45623;-56
2022/08/16 07:14:48;;;;;;;;;21.00;16.75;;;;;24.60;48.14;100178.00;5080360;27;56639;-56
2022/08/16 07:17:17;;;;;;;;;20.25;16.25;;;;;24.61;47.91;100171.66;5078616;27;65930;-54
2022/08/16 07:19:43;;;;;;;;;22.50;18.00;;;;;24.60;48.53;100173.50;5065368;28;45417;-56
2022/08/16 07:22:09;;;;;;;;;22.75;20.25;;;;;24.64;48.38;100187.41;5089448;27;45244;-55
2022/08/16 07:24:34;;;;;;;;;22.50;18.75;;;;;24.64;48.47;100185.56;5080894;27;45844;-54
2022/08/16 07:27:00;;;;;;;;;23.00;20.00;;;;;24.62;48.57;100179.53;5073173;27;45420;-55
2022/08/16 07:29:25;;;;;;;;;22.75;19.75;;;;;24.63;48.39;100178.56;5072347;27;45377;-55
2022/08/16 07:31:50;;;;;;;;;22.00;19.00;;;;;24.67;48.57;100186.31;5078226;27;45758;-56
2022/08/16 07:34:17;;;;;;;;;20.25;19.25;;;;;24.67;48.53;100188.97;5071924;28;69776;-56
2022/08/16 07:36:44;;;;;;;;;22.00;18.75;;;;;24.70;48.43;100191.34;5068996;28;45268;-56
2022/08/16 07:39:09;;;;;;;;;25.75;22.00;;;;;24.71;48.54;100183.16;5066552;28;45623;-54
2022/08/16 07:41:35;;;;;;;;;23.25;22.00;;;;;24.73;48.55;100183.03;5086489;27;45504;-56
2022/08/16 07:44:00;;;;;;;;;27.00;23.75;;;;;24.72;48.58;100179.50;5064417;27;46285;-55
2022/08/16 07:46:26;;;;;;;;;26.50;23.00;;;;;24.75;48.99;100189.06;5068234;27;45363;-55
2022/08/16 07:48:51;;;;;;;;;26.00;22.25;;;;;24.76;48.69;100188.94;5070336;27;45507;-55
2022/08/16 07:51:17;;;;;;;;;20.50;19.50;;;;;24.78;48.58;100186.94;5066076;28;67656;-56
2022/08/16 07:53:43;;;;;;;;;26.00;22.00;;;;;24.81;48.70;100181.31;5078841;27;68508;-55
2022/08/16 07:56:09;;;;;;;;;22.00;20.00;;;;;24.82;48.68;100185.69;5076934;27;45541;-54
2022/08/16 07:58:34;;;;;;;;;25.25;22.50;;;;;24.83;48.59;100184.66;5073632;27;45464;-56
2022/08/16 08:01:00;;;;;;;;;23.00;20.75;;;;;24.83;48.81;100191.88;5066785;27;45334;-56
2022/08/16 08:03:26;;;;;;;;;26.25;21.50;;;;;24.82;48.64;100195.53;5078788;27;46874;-56
2022/08/16 08:05:51;;;;;;;;;23.50;19.25;;;;;24.81;48.52;100197.34;5083634;27;45327;-56
2022/08/16 08:08:17;;;;;;;;;26.25;20.00;;;;;24.83;48.48;100195.38;5074214;27;45510;-57
2022/08/16 08:10:43;;;;;;;;;21.75;19.25;;;;;24.85;48.48;100192.56;5079285;27;45538;-56
2022/08/16 08:13:08;;;;;;;;;21.75;19.50;;;;;24.86;48.28;100196.94;5082479;27;72192;-57
2022/08/16 08:15:34;;;;;;;;;15.75;14.75;;;;;24.91;48.35;100196.47;5080250;27;45453;-56
2022/08/16 08:18:00;;;;;;;;;23.75;18.25;;;;;24.93;47.85;100191.81;5072774;27;45437;-56
2022/08/16 08:20:25;;;;;;;;;23.75;19.25;;;;;24.97;48.02;100191.38;5069282;27;45400;-56
2022/08/16 08:22:52;;;;;;;;;17.75;16.75;;;;;25.01;47.86;100197.28;5071553;28;48183;-56
2022/08/16 08:25:19;;;;;;;;;16.50;16.00;;;;;25.05;47.87;100197.81;5077653;27;45319;-57
2022/08/16 08:27:45;;;;;;;;;19.75;16.00;;;;;25.08;47.88;100192.19;5064466;28;45404;-56
2022/08/16 08:30:11;;;;;;;;;25.25;18.50;;;;;25.13;47.57;100192.56;5066882;28;45363;-56
2022/08/16 08:32:36;;;;;;;;;18.75;17.75;;;;;25.18;47.59;100192.97;5072565;27;45539;-54
2022/08/16 08:35:03;;;;;;;;;19.25;18.25;;;;;25.24;47.70;100194.19;5068994;27;45342;-56
2022/08/16 08:37:29;;;;;;;;;18.75;16.00;;;;;25.28;47.20;100199.13;5072095;28;45279;-56
2022/08/16 08:39:55;;;;;;;;;16.25;16.25;;;;;25.34;47.08;100201.22;5078519;27;45561;-57
2022/08/16 08:42:20;;;;;;;;;23.75;21.00;;;;;25.39;47.19;100200.75;5078910;27;72615;-55
2022/08/16 08:44:45;;;;;;;;;20.00;16.50;;;;;25.46;47.15;100207.22;5078159;27;65370;-57
2022/08/16 08:47:11;;;;;;;;;19.75;18.00;;;;;25.51;46.68;100201.38;5078972;27;56126;-56
2022/08/16 08:49:37;;;;;;;;;15.75;14.75;;;;;25.57;46.77;100207.00;5066475;27;45303;-56
2022/08/16 08:52:03;;;;;;;;;17.50;14.75;;;;;25.65;46.34;100210.75;5080752;27;46265;-54
2022/08/16 08:54:29;;;;;;;;;21.25;14.25;;;;;25.69;45.91;100212.13;5066829;27;45355;-55
2022/08/16 08:56:54;;;;;;;;;20.00;14.25;;;;;25.74;46.13;100212.50;5079926;27;45299;-56
2022/08/16 08:59:19;;;;;;;;;18.00;14.50;;;;;25.79;46.05;100217.41;5076673;27;55995;-55
2022/08/16 09:01:46;;;;;;;;;15.50;15.50;;;;;25.83;45.69;100211.56;5065431;27;61975;-56
2022/08/16 09:04:12;;;;;;;;;14.50;12.25;;;;;25.90;45.96;100215.31;5066812;27;45724;-56
2022/08/16 09:06:37;;;;;;;;;16.50;13.75;;;;;25.93;45.19;100211.50;5088796;27;45423;-56
2022/08/16 09:09:04;;;;;;;;;16.50;12.50;;;;;25.95;45.13;100215.75;5071750;27;45469;-56
2022/08/16 09:11:29;;;;;;;;;15.25;13.75;;;;;25.98;45.48;100211.09;5073685;27;45197;-55
2022/08/16 09:13:54;;;;;;;;;15.50;13.00;;;;;26.01;45.41;100219.69;5070718;28;66175;-55
2022/08/16 09:16:20;;;;;;;;;15.00;14.25;;;;;26.04;45.44;100205.09;5086974;27;48886;-55
2022/08/16 09:18:46;;;;;;;;;17.00;14.50;;;;;26.20;44.75;100217.81;5071213;27;45283;-56
2022/08/16 09:21:14;;;;;;;;;16.75;13.50;;;;;26.39;45.16;100216.78;5079657;27;45341;-55
2022/08/16 09:23:40;;;;;;;;;14.00;14.00;;;;;26.70;44.54;100220.69;5088633;27;45462;-56
2022/08/16 09:26:08;;;;;;;;;17.00;14.25;;;;;27.11;44.42;100225.44;5080895;28;45431;-56
2022/08/16 09:28:34;;;;;;;;;15.50;14.25;;;;;27.49;43.41;100222.41;5079286;27;45421;-57
2022/08/16 09:30:59;;;;;;;;;13.50;13.00;;;;;27.85;42.79;100228.31;5061594;28;60532;-57
2022/08/16 09:33:25;;;;;;;;;15.00;11.75;;;;;28.02;42.87;100227.38;5067441;28;45284;-56
2022/08/16 09:35:51;;;;;;;;;14.25;12.75;;;;;28.12;42.82;100237.97;5072825;27;45238;-57
2022/08/16 09:38:16;;;;;;;;;13.25;11.50;;;;;28.05;42.42;100234.28;5077565;27;45472;-57
2022/08/16 09:40:46;;;;;;;;;17.00;16.00;;;;;28.03;42.18;100233.59;5078709;27;46156;-57
2022/08/16 09:43:14;;;;;;;;;14.50;14.25;;;;;28.01;41.95;100230.22;5077054;27;46028;-57
2022/08/16 09:45:42;;;;;;;;;16.00;14.75;;;;;28.06;42.28;100230.56;5089195;27;45220;-57
2022/08/16 09:48:09;;;;;;;;;15.50;15.00;;;;;28.12;40.97;100226.34;5068560;27;45418;-56
2022/08/16 09:50:36;;;;;;;;;17.50;14.75;;;;;28.19;41.50;100230.06;5077617;27;46269;-57
2022/08/16 09:53:03;;;;;;;;;18.50;12.50;;;;;28.33;40.73;100231.22;5068459;27;45282;-57
2022/08/16 09:55:29;;;;;;;;;15.00;13.25;;;;;28.38;41.46;100231.56;5079051;27;45238;-57
2022/08/16 09:57:54;;;;;;;;;15.00;13.00;;;;;28.37;41.04;100233.41;5077176;27;45219;-56
2022/08/16 10:00:19;;;;;;;;;16.00;13.25;;;;;28.34;40.50;100231.06;5071966;27;74872;-57
2022/08/16 10:02:46;;;;;;;;;14.00;13.00;;;;;28.37;41.12;100222.66;5066988;27;63145;-56
2022/08/16 10:05:11;;;;;;;;;16.25;13.00;;;;;28.47;41.14;100227.84;5068124;27;45323;-55
2022/08/16 10:07:37;;;;;;;;;15.75;14.25;;;;;28.49;41.05;100242.00;5087361;27;72131;-56
2022/08/16 10:10:04;;;;;;;;;14.50;12.50;;;;;28.45;40.74;100240.63;5063320;28;46171;-57
2022/08/16 10:15:16;;;;;;;;;11.00;9.00;;;;;28.28;41.09;100239.81;5067922;28;45463;-57
2022/08/16 10:17:44;;;;;;;;;11.25;11.25;;;;;28.22;40.75;100232.41;5082222;27;45433;-56
2022/08/16 10:20:10;;;;;;;;;13.25;11.25;;;;;28.35;41.18;100227.38;5081900;27;45425;-56
2022/08/16 10:22:37;;;;;;;;;14.00;10.50;;;;;28.71;41.10;100235.06;5079850;27;45760;-57
2022/08/16 10:25:03;;;;;;;;;14.00;14.00;;;;;29.15;40.01;100236.47;5073287;27;46688;-56
2022/08/16 10:27:29;;;;;;;;;16.75;14.00;;;;;29.56;39.41;100240.84;5074092;27;45644;-58
2022/08/16 10:29:54;;;;;;;;;15.00;12.00;;;;;29.76;38.17;100235.84;5069093;28;45471;-58
2022/08/16 10:32:19;;;;;;;;;11.25;10.75;;;;;29.82;38.89;100246.75;5071591;27;65290;-57
2022/08/16 10:34:45;;;;;;;;;16.75;12.75;;;;;29.79;39.49;100249.81;5083111;27;57952;-56
2022/08/16 10:37:11;;;;;;;;;12.25;12.25;;;;;29.73;38.87;100248.63;5073124;27;45557;-58
2022/08/16 10:39:38;;;;;;;;;15.00;13.25;;;;;29.67;38.62;100246.63;5067910;28;46095;-57
2022/08/16 10:42:04;;;;;;;;;14.00;13.00;;;;;29.60;38.37;100240.28;5077396;27;45320;-56
2022/08/16 10:44:30;;;;;;;;;20.50;13.75;;;;;29.57;38.79;100246.06;5054270;28;45596;-57
2022/08/16 10:46:55;;;;;;;;;12.50;11.50;;;;;29.57;38.77;100240.66;5078452;27;62366;-56
2022/08/16 10:49:20;;;;;;;;;13.00;13.00;;;;;29.60;38.33;100239.44;5072791;27;45495;-57
2022/08/16 10:51:46;;;;;;;;;19.75;14.75;;;;;29.61;38.59;100233.88;5077997;27;45427;-56
2022/08/16 10:54:11;;;;;;;;;13.50;11.75;;;;;29.64;38.60;100240.75;5079629;28;45330;-56
2022/08/16 10:56:37;;;;;;;;;18.00;13.75;;;;;29.66;38.70;100242.28;5070999;27;45327;-57
2022/08/16 10:59:02;;;;;;;;;15.25;12.25;;;;;29.71;38.69;100236.34;5072067;28;46926;-57
2022/08/16 11:01:27;;;;;;;;;15.25;15.25;;;;;29.73;38.59;100237.03;5071528;27;72267;-57
2022/08/16 11:03:53;;;;;;;;;14.00;13.50;;;;;29.71;38.64;100239.03;5067857;28;53588;-56
2022/08/16 11:06:20;;;;;;;;;21.00;17.25;;;;;29.63;38.32;100239.94;5078176;27;45468;-57
2022/08/16 11:08:45;;;;;;;;;22.75;17.50;;;;;29.56;38.61;100240.84;5072551;28;48238;-57